Time;durP1;ratioP1;P1;durP2;ratioP2;P2;SDS_P1;SDS_P2;PMS_P1;PMS_P2;Temp;Humidity;BMP_temperature;BMP_pressure;BME280_temperature;BME280_humidity;BME280_pressure;Samples;Min_cycle;Max_cycle;Signal;HPM_P1;HPM_P2
2023/04/16 00:01:08;;;;;;;18.10;13.75;;;;;;;10.89;72.59;101978.94;7397685;19;19994;-62
2023/04/16 00:03:34;;;;;;;20.95;15.43;;;;;;;10.85;72.79;101977.41;7391120;19;20022;-60
2023/04/16 00:06:00;;;;;;;18.73;14.55;;;;;;;10.82;72.69;101984.69;7396165;19;20007;-62
2023/04/16 00:08:25;;;;;;;22.20;16.15;;;;;;;10.78;72.92;101991.94;7395865;19;20014;-61
2023/04/16 00:10:54;;;;;;;20.00;14.98;;;;;;;10.77;73.26;101987.59;7395817;19;20048;-61
2023/04/16 00:13:20;;;;;;;22.90;15.68;;;;;;;10.85;72.57;101984.50;7392691;19;20400;-60
2023/04/16 00:15:45;;;;;;;22.30;15.60;;;;;;;10.82;72.42;101989.97;7395663;19;20125;-61
2023/04/16 00:18:11;;;;;;;21.02;14.52;;;;;;;10.79;72.89;101990.13;7394665;19;20356;-61
2023/04/16 00:20:36;;;;;;;20.02;14.70;;;;;;;10.77;72.84;101986.72;7395914;19;19999;-62
2023/04/16 00:23:02;;;;;;;20.77;15.50;;;;;;;10.74;72.72;101988.59;7393431;19;20007;-62
2023/04/16 00:25:28;;;;;;;21.88;15.02;;;;;;;10.70;73.10;101987.06;7395489;19;20007;-61
2023/04/16 00:27:53;;;;;;;20.42;15.30;;;;;;;10.77;73.17;101989.38;7396658;19;20027;-62
2023/04/16 00:30:19;;;;;;;22.85;15.75;;;;;;;10.69;73.02;101988.00;7394877;19;20013;-61
2023/04/16 00:32:44;;;;;;;20.23;14.93;;;;;;;10.66;73.32;101995.25;7394975;19;20002;-60
2023/04/16 00:35:10;;;;;;;21.73;15.68;;;;;;;10.73;73.14;101986.03;7394687;19;20002;-62
2023/04/16 00:37:36;;;;;;;22.67;16.00;;;;;;;10.79;72.97;101993.63;7395809;19;19999;-61
2023/04/16 00:40:01;;;;;;;19.83;15.48;;;;;;;10.74;73.04;101991.25;7394891;19;20471;-60
2023/04/16 00:42:27;;;;;;;24.83;16.33;;;;;;;10.75;72.74;101994.75;7392996;19;19998;-61
2023/04/16 00:44:53;;;;;;;22.50;16.10;;;;;;;10.71;73.03;101995.84;7394451;19;20003;-59
2023/04/16 00:47:19;;;;;;;19.85;14.57;;;;;;;10.71;72.97;102001.16;7394511;19;20030;-58
2023/04/16 00:49:46;;;;;;;23.80;16.02;;;;;;;10.66;73.01;101998.75;7392643;19;20030;-60
2023/04/16 00:52:11;;;;;;;23.77;16.13;;;;;;;10.63;73.48;102006.00;7393015;19;20026;-58
2023/04/16 00:54:38;;;;;;;22.98;17.23;;;;;;;10.60;73.55;102000.88;7391867;19;20082;-59
2023/04/16 00:57:04;;;;;;;21.73;15.48;;;;;;;10.60;73.58;101996.44;7394871;19;20085;-59
2023/04/16 00:59:31;;;;;;;22.85;16.38;;;;;;;10.61;73.54;102002.59;7393491;19;20013;-59
2023/04/16 01:01:57;;;;;;;22.02;16.25;;;;;;;10.67;73.11;102003.09;7394689;19;19995;-59
2023/04/16 01:04:22;;;;;;;22.80;16.30;;;;;;;10.65;73.43;102004.16;7392786;19;20400;-58
2023/04/16 01:06:48;;;;;;;21.58;15.15;;;;;;;10.57;73.74;102012.50;7394103;19;19994;-58
2023/04/16 01:09:20;;;;;;;22.60;16.35;;;;;;;10.60;73.25;102008.81;7394325;19;19998;-58
2023/04/16 01:11:45;;;;;;;21.05;16.13;;;;;;;10.40;74.42;102016.03;7394715;19;20018;-59
2023/04/16 01:14:11;;;;;;;22.00;16.85;;;;;;;10.44;73.78;102019.38;7392588;19;20002;-58
2023/04/16 01:16:36;;;;;;;23.17;17.33;;;;;;;10.53;73.60;102020.69;7394019;19;20013;-59
2023/04/16 01:19:02;;;;;;;21.55;16.67;;;;;;;10.53;73.79;102016.25;7392458;19;20307;-59
2023/04/16 01:21:27;;;;;;;23.90;16.98;;;;;;;10.56;73.42;102017.88;7394883;19;20435;-59
2023/04/16 01:23:53;;;;;;;23.58;16.80;;;;;;;10.45;73.76;102019.31;7393049;19;20025;-59
2023/04/16 01:26:18;;;;;;;22.70;16.60;;;;;;;10.49;73.63;102019.97;7392245;19;20005;-59
2023/04/16 01:28:44;;;;;;;23.77;16.73;;;;;;;10.43;73.80;102018.53;7393839;19;20550;-59
2023/04/16 01:31:10;;;;;;;21.73;16.80;;;;;;;10.44;73.74;102022.03;7391998;19;20003;-59
2023/04/16 01:33:35;;;;;;;21.95;16.65;;;;;;;10.46;73.47;102021.03;7391831;19;20007;-60
2023/04/16 01:36:01;;;;;;;24.35;17.40;;;;;;;10.43;73.64;102029.13;7393381;19;20006;-59
2023/04/16 01:38:26;;;;;;;21.95;16.90;;;;;;;10.49;73.33;102030.56;7392977;19;20551;-59
2023/04/16 01:40:58;;;;;;;21.30;15.95;;;;;;;10.54;73.34;102035.66;7390976;19;20343;-61
2023/04/16 01:43:24;;;;;;;20.70;16.33;;;;;;;10.55;73.32;102035.56;7392850;19;20030;-59
2023/04/16 01:45:50;;;;;;;22.38;16.80;;;;;;;10.53;73.37;102033.91;7392913;19;19999;-60
2023/04/16 01:48:16;;;;;;;21.95;17.27;;;;;;;10.48;73.21;102040.31;7393583;19;20073;-60
2023/04/16 01:50:42;;;;;;;20.10;16.05;;;;;;;10.36;73.91;102040.13;7392071;19;20007;-60
2023/04/16 01:53:08;;;;;;;22.92;17.35;;;;;;;10.44;73.61;102035.28;7392051;19;20470;-60
2023/04/16 01:55:34;;;;;;;23.30;16.05;;;;;;;10.35;73.76;102035.75;7393128;19;20026;-60
2023/04/16 01:57:59;;;;;;;21.70;15.93;;;;;;;10.35;73.95;102033.97;7392386;19;20002;-59
2023/04/16 02:00:25;;;;;;;23.20;17.30;;;;;;;10.37;73.65;102039.16;7392340;19;20455;-60
2023/04/16 02:02:51;;;;;;;22.25;16.55;;;;;;;10.38;73.79;102038.22;7391646;19;20006;-60
2023/04/16 02:05:16;;;;;;;22.02;16.33;;;;;;;10.39;73.58;102030.22;7390109;19;20003;-59
2023/04/16 02:07:42;;;;;;;23.90;17.85;;;;;;;10.34;73.67;102032.25;7392242;19;19998;-59
2023/04/16 02:10:09;;;;;;;21.80;16.38;;;;;;;10.39;73.43;102032.88;7392123;19;20002;-59
2023/04/16 02:12:34;;;;;;;21.30;16.75;;;;;;;10.37;73.61;102042.66;7389474;19;20381;-59
2023/04/16 02:15:00;;;;;;;22.67;16.25;;;;;;;10.39;73.51;102039.97;7390003;19;20006;-60
2023/04/16 02:17:26;;;;;;;22.90;15.90;;;;;;;10.46;73.38;102041.34;7392581;19;20304;-59
2023/04/16 02:19:51;;;;;;;21.88;15.77;;;;;;;10.29;73.88;102039.56;7392003;19;20002;-60
2023/04/16 02:22:17;;;;;;;23.10;16.42;;;;;;;10.33;73.65;102038.47;7390714;19;20032;-60
2023/04/16 02:24:42;;;;;;;21.20;16.15;;;;;;;10.32;73.79;102043.84;7389981;19;20009;-59
2023/04/16 02:27:08;;;;;;;21.40;15.50;;;;;;;10.38;73.62;102041.75;7392340;19;20009;-60
2023/04/16 02:29:34;;;;;;;23.05;16.67;;;;;;;10.31;73.80;102048.31;7391431;19;20022;-59
2023/04/16 02:32:00;;;;;;;22.20;16.08;;;;;;;10.26;74.13;102050.31;7391883;19;20019;-59
2023/04/16 02:34:25;;;;;;;21.67;16.33;;;;;;;10.39;73.75;102053.19;7389839;19;20463;-59
2023/04/16 02:36:51;;;;;;;22.52;16.08;;;;;;;10.38;73.74;102052.34;7391773;19;20014;-59
2023/04/16 02:39:16;;;;;;;22.88;16.38;;;;;;;10.42;73.76;102058.34;7390052;19;19995;-59
2023/04/16 02:41:42;;;;;;;23.63;16.25;;;;;;;10.39;73.56;102055.84;7391080;19;20026;-59
2023/04/16 02:44:07;;;;;;;21.35;15.48;;;;;;;10.40;73.62;102063.69;7388061;19;20013;-58
2023/04/16 02:46:33;;;;;;;22.08;14.82;;;;;;;10.37;73.72;102061.19;7391213;19;19998;-58
2023/04/16 02:48:59;;;;;;;22.02;16.25;;;;;;;10.17;74.68;102062.19;7390867;19;20010;-58
2023/04/16 02:51:25;;;;;;;22.88;16.30;;;;;;;10.23;74.45;102061.06;7389645;19;20021;-59
2023/04/16 02:53:50;;;;;;;21.63;15.63;;;;;;;10.26;74.36;102066.19;7389919;19;20010;-59
2023/04/16 02:56:16;;;;;;;21.17;16.02;;;;;;;10.30;74.23;102069.53;7391176;19;20371;-59
2023/04/16 02:58:41;;;;;;;22.10;16.02;;;;;;;10.34;74.12;102071.09;7390623;19;20006;-59
2023/04/16 03:01:07;;;;;;;21.60;16.10;;;;;;;10.37;74.05;102076.25;7389438;19;19999;-59
2023/04/16 03:03:33;;;;;;;22.08;16.75;;;;;;;10.39;73.59;102080.53;7390113;19;20337;-60
2023/04/16 03:05:58;;;;;;;23.92;16.38;;;;;;;10.24;74.16;102082.13;7390213;19;20833;-60
2023/04/16 03:08:24;;;;;;;21.80;16.67;;;;;;;10.26;74.22;102079.44;7389070;19;20018;-59
2023/04/16 03:10:50;;;;;;;23.13;16.33;;;;;;;10.25;74.13;102080.38;7390707;19;19991;-59
2023/04/16 03:13:15;;;;;;;21.65;16.02;;;;;;;10.23;74.28;102080.44;7389602;19;19995;-59
2023/04/16 03:15:47;;;;;;;22.50;15.93;;;;;;;10.30;74.25;102088.94;7390520;19;20011;-60
2023/04/16 03:18:12;;;;;;;24.10;17.10;;;;;;;10.31;74.23;102084.53;7390656;19;19994;-58
2023/04/16 03:20:38;;;;;;;22.65;16.52;;;;;;;10.33;73.72;102087.94;7389769;19;20027;-59
2023/04/16 03:23:03;;;;;;;22.58;17.52;;;;;;;10.32;73.77;102079.13;7389935;19;20029;-61
2023/04/16 03:25:29;;;;;;;21.15;16.33;;;;;;;10.32;73.72;102076.47;7391808;19;20025;-60
2023/04/16 03:27:55;;;;;;;24.40;17.17;;;;;;;10.38;73.73;102085.88;7398194;19;19999;-60
2023/04/16 03:30:20;;;;;;;21.73;16.63;;;;;;;10.29;73.95;102086.38;7395837;19;19998;-58
2023/04/16 03:32:46;;;;;;;24.95;17.00;;;;;;;10.18;74.25;102087.72;7396173;19;19994;-59
2023/04/16 03:35:11;;;;;;;24.50;17.92;;;;;;;10.13;74.51;102089.75;7398178;19;20463;-60
2023/04/16 03:37:37;;;;;;;24.75;17.63;;;;;;;10.19;74.49;102091.25;7397927;19;20014;-58
2023/04/16 03:40:04;;;;;;;25.38;17.52;;;;;;;10.24;74.27;102089.22;7395891;19;20118;-59
2023/04/16 03:42:30;;;;;;;22.92;16.98;;;;;;;10.30;73.79;102096.03;7394689;19;20461;-59
2023/04/16 03:44:56;;;;;;;23.60;16.70;;;;;;;10.27;74.21;102099.69;7395818;19;19998;-58
2023/04/16 03:47:21;;;;;;;26.77;17.70;;;;;;;10.22;73.95;102091.09;7397211;19;19994;-59
2023/04/16 03:49:47;;;;;;;24.67;16.92;;;;;;;10.30;73.67;102096.03;7396822;19;20089;-59
2023/04/16 03:52:13;;;;;;;25.15;17.85;;;;;;;10.27;73.71;102096.19;7396998;19;20009;-59
2023/04/16 03:54:38;;;;;;;27.13;17.63;;;;;;;10.26;73.84;102100.63;7392382;19;20586;-59
2023/04/16 03:57:04;;;;;;;25.73;18.38;;;;;;;10.23;73.77;102091.03;7395182;19;20002;-60
2023/04/16 03:59:29;;;;;;;23.42;17.05;;;;;;;10.25;73.87;102090.97;7396657;19;19991;-59
2023/04/16 04:01:55;;;;;;;23.80;17.50;;;;;;;10.25;73.68;102097.13;7397027;19;20028;-59
2023/04/16 04:04:20;;;;;;;24.92;18.20;;;;;;;10.18;74.10;102094.81;7393512;19;20479;-59
2023/04/16 04:06:46;;;;;;;24.85;18.88;;;;;;;10.20;73.97;102098.25;7396407;19;19999;-60
2023/04/16 04:09:12;;;;;;;23.88;17.08;;;;;;;10.21;74.08;102092.88;7396150;19;20482;-58
2023/04/16 04:11:38;;;;;;;23.80;17.67;;;;;;;10.12;74.22;102096.00;7396529;19;20018;-60
2023/04/16 04:14:04;;;;;;;24.42;18.13;;;;;;;10.14;74.23;102102.06;7393390;19;20006;-59
2023/04/16 04:16:30;;;;;;;25.73;18.38;;;;;;;10.17;73.88;102099.25;7396574;19;20458;-59
2023/04/16 04:18:56;;;;;;;23.25;17.15;;;;;;;10.20;73.64;102100.91;7395846;19;20006;-60
2023/04/16 04:21:21;;;;;;;23.25;17.30;;;;;;;10.06;74.28;102106.03;7396542;19;20414;-59
2023/04/16 04:23:47;;;;;;;25.48;18.42;;;;;;;10.17;73.88;102101.06;7394602;19;20023;-60
2023/04/16 04:26:13;;;;;;;23.92;17.55;;;;;;;10.18;73.81;102100.13;7396022;19;20313;-60
2023/04/16 04:28:38;;;;;;;24.13;17.95;;;;;;;10.13;74.19;102103.00;7395381;19;19999;-60
2023/04/16 04:31:04;;;;;;;21.45;16.17;;;;;;;10.16;74.15;102109.94;7395475;19;20002;-60
2023/04/16 04:33:30;;;;;;;25.20;16.83;;;;;;;10.20;73.68;102114.16;7393844;19;20003;-60
2023/04/16 04:35:56;;;;;;;23.90;17.35;;;;;;;10.18;73.96;102116.00;7394757;19;19998;-59
2023/04/16 04:38:24;;;;;;;24.90;17.73;;;;;;;10.20;73.93;102119.44;7394175;19;20006;-60
2023/04/16 04:40:52;;;;;;;23.92;17.20;;;;;;;10.23;73.43;102127.22;7395886;19;20020;-60
2023/04/16 04:43:19;;;;;;;22.52;17.73;;;;;;;10.23;73.32;102121.94;7394631;19;20099;-60
2023/04/16 04:45:45;;;;;;;26.48;18.30;;;;;;;10.27;73.38;102126.19;7393638;19;19999;-61
2023/04/16 04:48:11;;;;;;;25.52;17.77;;;;;;;10.29;73.30;102131.38;7395027;19;20006;-60
2023/04/16 04:50:37;;;;;;;24.48;17.70;;;;;;;10.22;73.28;102126.34;7393565;19;20006;-60
2023/04/16 04:53:08;;;;;;;24.10;16.92;;;;;;;10.17;73.38;102140.75;7391525;19;20026;-59
2023/04/16 04:55:36;;;;;;;22.92;16.35;;;;;;;10.10;73.88;102142.00;7393713;19;20002;-59
2023/04/16 04:58:03;;;;;;;23.73;16.77;;;;;;;10.19;73.43;102137.13;7395293;19;20099;-59
2023/04/16 05:00:29;;;;;;;24.30;16.42;;;;;;;10.24;73.29;102142.19;7394100;19;20497;-59
2023/04/16 05:02:54;;;;;;;26.30;17.45;;;;;;;10.27;73.02;102144.72;7394443;19;20006;-59
2023/04/16 05:05:20;;;;;;;25.42;18.38;;;;;;;10.34;72.89;102154.06;7391468;19;20474;-59
2023/04/16 05:07:46;;;;;;;25.13;17.20;;;;;;;10.24;73.31;102155.41;7394864;19;20487;-59
2023/04/16 05:10:11;;;;;;;23.73;17.50;;;;;;;10.19;73.47;102157.44;7394255;19;19998;-59
2023/04/16 05:12:37;;;;;;;25.25;17.65;;;;;;;10.24;73.21;102153.63;7393734;19;20104;-59
2023/04/16 05:15:02;;;;;;;23.73;17.55;;;;;;;10.32;72.75;102149.78;7394043;19;20466;-58
2023/04/16 05:17:28;;;;;;;24.15;17.55;;;;;;;10.32;72.87;102150.63;7394279;19;20003;-58
2023/04/16 05:19:53;;;;;;;23.35;17.23;;;;;;;10.35;72.55;102157.56;7393629;19;20488;-59
2023/04/16 05:22:19;;;;;;;21.35;16.33;;;;;;;10.45;72.50;102150.84;7393974;19;20487;-59
2023/04/16 05:24:45;;;;;;;26.25;17.85;;;;;;;10.44;72.19;102152.66;7391733;19;20467;-59
2023/04/16 05:27:10;;;;;;;22.00;16.80;;;;;;;10.47;72.08;102157.78;7392658;19;20002;-58
2023/04/16 05:29:36;;;;;;;23.17;16.33;;;;;;;10.47;72.07;102157.78;7393290;19;20021;-60
2023/04/16 05:32:01;;;;;;;25.27;17.15;;;;;;;10.45;71.90;102157.03;7393944;19;19991;-60
2023/04/16 05:34:27;;;;;;;23.65;17.08;;;;;;;10.48;72.01;102163.94;7391690;19;19999;-60
2023/04/16 05:36:52;;;;;;;22.13;16.50;;;;;;;10.47;72.10;102167.53;7391658;19;20378;-60
2023/04/16 05:39:19;;;;;;;24.75;15.77;;;;;;;10.48;71.80;102164.78;7393263;19;20577;-60
2023/04/16 05:41:44;;;;;;;23.70;16.42;;;;;;;10.49;71.96;102161.22;7393582;19;20357;-60
2023/04/16 05:44:10;;;;;;;23.40;16.75;;;;;;;10.51;71.89;102165.59;7390726;19;20011;-60
2023/04/16 05:46:35;;;;;;;21.77;15.73;;;;;;;10.56;71.42;102174.16;7392951;19;19994;-60
2023/04/16 05:49:01;;;;;;;23.50;16.73;;;;;;;10.54;71.50;102173.38;7392288;19;19999;-60
2023/04/16 05:51:27;;;;;;;21.35;16.33;;;;;;;10.55;71.75;102180.38;7393002;19;20003;-60
2023/04/16 05:53:52;;;;;;;23.17;15.93;;;;;;;10.65;71.21;102177.19;7392258;19;19999;-60
2023/04/16 05:56:18;;;;;;;25.85;16.85;;;;;;;10.52;71.57;102176.09;7390915;19;20058;-60
2023/04/16 05:58:43;;;;;;;21.10;16.05;;;;;;;10.62;71.36;102180.00;7392282;19;20002;-60
2023/04/16 06:01:10;;;;;;;22.80;15.35;;;;;;;10.71;70.75;102178.66;7393063;19;20026;-59
2023/04/16 06:03:35;;;;;;;21.45;15.90;;;;;;;10.71;70.99;102186.63;7391323;19;20010;-60
2023/04/16 06:06:01;;;;;;;22.15;15.48;;;;;;;10.66;70.98;102186.00;7391121;19;20469;-59
2023/04/16 06:08:26;;;;;;;20.83;14.95;;;;;;;10.66;70.92;102186.84;7391636;19;20002;-60
2023/04/16 06:10:52;;;;;;;20.67;15.55;;;;;;;10.71;71.02;102189.25;7392588;19;20026;-60
2023/04/16 06:13:18;;;;;;;23.45;15.40;;;;;;;10.73;70.73;102198.84;7390912;19;19999;-60
2023/04/16 06:15:43;;;;;;;21.42;15.73;;;;;;;10.69;70.78;102197.31;7390940;19;19994;-60
2023/04/16 06:18:09;;;;;;;22.98;15.20;;;;;;;10.76;70.72;102204.91;7392642;19;20021;-61
2023/04/16 06:20:35;;;;;;;21.13;14.90;;;;;;;10.75;70.58;102206.72;7391710;19;20017;-59
2023/04/16 06:23:00;;;;;;;19.83;14.15;;;;;;;10.71;70.60;102207.81;7389800;19;20013;-59
2023/04/16 06:25:26;;;;;;;20.98;15.40;;;;;;;10.68;70.41;102200.91;7392304;19;19995;-60
2023/04/16 06:27:51;;;;;;;24.40;16.38;;;;;;;10.75;70.60;102206.72;7391698;19;20001;-60
2023/04/16 06:30:18;;;;;;;20.48;14.85;;;;;;;10.81;70.35;102216.16;7391651;19;20006;-60
2023/04/16 06:32:45;;;;;;;21.40;15.55;;;;;;;10.84;70.08;102211.56;7390973;19;19999;-59
2023/04/16 06:35:11;;;;;;;22.13;14.95;;;;;;;10.84;70.14;102211.56;7391274;19;20003;-60
2023/04/16 06:37:37;;;;;;;21.17;15.20;;;;;;;10.80;70.12;102223.25;7390465;19;20463;-58
2023/04/16 06:40:03;;;;;;;20.27;14.93;;;;;;;10.83;70.15;102216.91;7390940;19;20110;-58
2023/04/16 06:42:29;;;;;;;20.83;14.27;;;;;;;10.86;70.18;102217.63;7391451;19;20095;-58
2023/04/16 06:44:55;;;;;;;21.33;14.55;;;;;;;10.85;70.36;102217.72;7391029;19;20050;-58
2023/04/16 06:47:20;;;;;;;19.45;14.45;;;;;;;10.84;70.39;102214.22;7391470;19;20065;-60
2023/04/16 06:49:46;;;;;;;20.20;14.85;;;;;;;10.91;69.94;102214.72;7391151;19;19999;-59
2023/04/16 06:52:11;;;;;;;22.27;15.15;;;;;;;10.98;69.82;102226.72;7390401;19;20009;-59
2023/04/16 06:54:37;;;;;;;21.48;14.77;;;;;;;11.00;69.60;102221.38;7388664;19;20091;-59
2023/04/16 06:57:03;;;;;;;22.00;15.68;;;;;;;11.03;69.34;102221.19;7390754;19;20312;-58
2023/04/16 06:59:28;;;;;;;22.90;15.70;;;;;;;10.97;69.47;102225.88;7389999;19;19999;-59
2023/04/16 07:01:54;;;;;;;20.20;14.55;;;;;;;11.02;69.38;102225.63;7389477;19;20007;-59
2023/04/16 07:04:20;;;;;;;21.65;14.60;;;;;;;11.05;69.27;102232.59;7389431;19;20589;-59
2023/04/16 07:06:45;;;;;;;21.90;14.32;;;;;;;11.15;69.00;102233.81;7389966;19;19995;-59
2023/04/16 07:09:11;;;;;;;23.17;14.98;;;;;;;11.09;69.09;102242.09;7389097;19;20072;-59
2023/04/16 07:11:36;;;;;;;19.52;14.55;;;;;;;11.02;69.27;102230.94;7390725;19;20013;-59
2023/04/16 07:14:02;;;;;;;21.65;13.75;;;;;;;11.09;69.19;102236.78;7389259;19;20005;-59
2023/04/16 07:16:28;;;;;;;20.20;14.82;;;;;;;11.08;69.39;102235.94;7390283;19;19999;-58
2023/04/16 07:18:53;;;;;;;20.33;14.48;;;;;;;11.16;69.32;102232.88;7390403;19;20007;-59
2023/04/16 07:21:19;;;;;;;23.25;14.05;;;;;;;11.21;69.11;102234.34;7390698;19;20474;-59
2023/04/16 07:23:45;;;;;;;21.75;14.10;;;;;;;11.26;68.65;102233.28;7387348;19;20467;-59
2023/04/16 07:26:11;;;;;;;20.65;14.70;;;;;;;11.24;68.25;102233.34;7389379;19;20001;-59
2023/04/16 07:28:36;;;;;;;22.00;14.02;;;;;;;11.27;68.30;102235.84;7389454;19;19994;-58
2023/04/16 07:31:02;;;;;;;19.33;14.00;;;;;;;11.27;68.09;102246.44;7390272;19;20008;-59
2023/04/16 07:33:28;;;;;;;22.58;14.38;;;;;;;11.30;68.41;102245.44;7389426;19;20002;-58
2023/04/16 07:35:53;;;;;;;21.60;14.10;;;;;;;11.27;68.18;102248.22;7387409;19;20011;-59
2023/04/16 07:38:19;;;;;;;22.60;14.13;;;;;;;11.34;68.10;102250.47;7388936;19;20112;-58
2023/04/16 07:40:45;;;;;;;20.35;13.90;;;;;;;11.40;67.86;102252.78;7389422;19;20474;-59
2023/04/16 07:43:10;;;;;;;19.23;13.75;;;;;;;11.38;67.29;102249.38;7388512;19;20003;-59
2023/04/16 07:45:36;;;;;;;19.17;14.18;;;;;;;11.40;67.60;102258.09;7389499;19;19995;-58
2023/04/16 07:48:02;;;;;;;18.80;13.50;;;;;;;11.45;67.81;102261.38;7388171;19;20368;-58
2023/04/16 07:50:34;;;;;;;20.88;14.10;;;;;;;11.51;67.64;102260.19;7389950;19;20010;-58
2023/04/16 07:53:00;;;;;;;20.70;14.13;;;;;;;11.50;67.45;102263.78;7388479;19;20042;-58
2023/04/16 07:55:25;;;;;;;20.90;14.02;;;;;;;11.47;67.46;102266.59;7389493;19;20070;-58
2023/04/16 07:57:51;;;;;;;20.30;13.93;;;;;;;11.60;67.23;102269.44;7388862;19;20003;-59
2023/04/16 08:00:16;;;;;;;18.92;13.07;;;;;;;11.62;66.70;102263.13;7389526;19;20026;-59
2023/04/16 08:02:43;;;;;;;18.98;12.88;;;;;;;11.64;66.64;102271.03;7389069;19;19994;-58
2023/04/16 08:05:09;;;;;;;20.05;13.35;;;;;;;11.67;66.41;102266.38;7387495;19;20383;-59
2023/04/16 08:07:35;;;;;;;18.80;13.45;;;;;;;11.76;66.50;102266.84;7389393;19;20003;-60
2023/04/16 08:10:01;;;;;;;22.80;14.02;;;;;;;11.79;66.49;102272.84;7388616;19;20009;-61
2023/04/16 08:12:28;;;;;;;20.30;13.25;;;;;;;11.81;65.75;102268.28;7390257;19;19995;-61
2023/04/16 08:14:53;;;;;;;19.77;13.30;;;;;;;11.95;65.57;102275.53;7397120;19;20467;-59
2023/04/16 08:17:19;;;;;;;21.95;13.52;;;;;;;12.03;65.56;102275.97;7396547;19;20027;-61
2023/04/16 08:19:45;;;;;;;19.48;13.50;;;;;;;12.00;65.60;102278.78;7396597;19;20468;-62
2023/04/16 08:22:12;;;;;;;19.30;12.63;;;;;;;12.01;65.52;102283.16;7396228;19;20030;-62
2023/04/16 08:24:37;;;;;;;19.98;13.68;;;;;;;12.05;65.20;102282.03;7393277;19;20006;-62
2023/04/16 08:27:03;;;;;;;20.38;12.93;;;;;;;12.08;65.00;102283.69;7396565;19;20436;-62
2023/04/16 08:29:29;;;;;;;19.27;13.32;;;;;;;12.13;64.95;102279.84;7395669;19;20155;-61
2023/04/16 08:31:55;;;;;;;18.88;13.55;;;;;;;12.17;64.98;102278.72;7396066;19;20469;-61
2023/04/16 08:34:21;;;;;;;19.58;13.60;;;;;;;12.22;65.01;102285.56;7393965;19;20455;-61
2023/04/16 08:36:47;;;;;;;21.38;13.32;;;;;;;12.28;64.67;102293.19;7395755;19;20459;-62
2023/04/16 08:39:12;;;;;;;18.08;13.15;;;;;;;12.28;64.25;102302.00;7395486;19;20073;-62
2023/04/16 08:41:42;;;;;;;20.98;12.95;;;;;;;12.25;64.12;102298.66;7395465;19;19998;-62
2023/04/16 08:44:12;;;;;;;20.73;13.23;;;;;;;12.22;64.59;102294.41;7392889;19;19998;-62
2023/04/16 08:46:40;;;;;;;20.23;13.63;;;;;;;12.22;64.31;102305.03;7396089;19;20343;-61
2023/04/16 08:49:07;;;;;;;20.17;12.95;;;;;;;12.24;64.29;102303.13;7395430;19;20005;-60
2023/04/16 08:51:37;;;;;;;20.50;13.95;;;;;;;12.28;64.19;102309.13;7395550;19;20068;-61
2023/04/16 08:54:20;;;;;;;18.92;13.20;;;;;;;12.33;63.97;102305.28;7393247;19;20011;-61
2023/04/16 08:56:47;;;;;;;21.33;13.27;;;;;;;12.30;63.72;102307.25;7395006;19;20020;-62
2023/04/16 08:59:13;;;;;;;19.27;13.88;;;;;;;12.27;64.13;102316.25;7392995;19;20006;-61
2023/04/16 09:01:40;;;;;;;19.77;13.27;;;;;;;12.30;64.08;102316.06;7395466;19;20590;-62
2023/04/16 09:04:06;;;;;;;20.52;14.15;;;;;;;12.45;63.81;102311.69;7392739;19;20006;-62
2023/04/16 09:06:33;;;;;;;21.08;13.50;;;;;;;12.54;63.83;102310.31;7395286;19;20028;-62
2023/04/16 09:09:03;;;;;;;20.45;12.93;;;;;;;12.66;63.48;102313.13;7393831;19;20617;-61
2023/04/16 09:11:29;;;;;;;22.02;14.13;;;;;;;12.76;63.21;102312.59;7393989;19;20459;-61
2023/04/16 09:13:56;;;;;;;22.80;13.98;;;;;;;12.78;62.70;102311.59;7389198;19;20076;-62
2023/04/16 09:16:22;;;;;;;20.73;14.23;;;;;;;12.79;62.90;102310.63;7391754;19;20014;-61
2023/04/16 09:18:48;;;;;;;22.55;14.25;;;;;;;12.82;63.27;102315.78;7393888;19;20022;-61
2023/04/16 09:21:14;;;;;;;18.73;13.43;;;;;;;12.86;63.26;102317.31;7392008;19;20340;-61
2023/04/16 09:23:40;;;;;;;20.02;13.82;;;;;;;12.85;63.36;102315.56;7391997;19;19999;-61
2023/04/16 09:26:06;;;;;;;22.40;14.38;;;;;;;12.81;63.43;102316.69;7392387;19;20062;-61
2023/04/16 09:28:42;;;;;;;20.48;13.82;;;;;;;12.87;62.94;102324.31;7395668;19;20019;-62
2023/04/16 09:31:15;;;;;;;20.27;14.10;;;;;;;12.90;63.09;102315.31;7397075;19;20024;-61
2023/04/16 09:33:42;;;;;;;22.15;13.45;;;;;;;13.06;62.46;102310.81;7393940;19;20010;-61
2023/04/16 09:36:09;;;;;;;21.05;13.90;;;;;;;13.12;62.90;102320.22;7396702;19;20005;-62
2023/04/16 09:38:49;;;;;;;18.45;13.63;;;;;;;13.12;62.52;102322.88;7395283;19;20010;-61
2023/04/16 09:41:15;;;;;;;21.80;13.80;;;;;;;13.04;62.62;102322.47;7396729;19;20070;-61
2023/04/16 09:43:48;;;;;;;19.50;13.90;;;;;;;13.05;62.70;102325.06;7395121;19;20092;-62
2023/04/16 09:46:13;;;;;;;18.48;13.27;;;;;;;13.08;62.61;102331.97;7394904;19;20066;-62
2023/04/16 09:48:39;;;;;;;19.02;13.35;;;;;;;13.14;62.30;102326.31;7396285;19;20006;-61
2023/04/16 09:51:05;;;;;;;20.75;14.07;;;;;;;13.16;62.37;102335.03;7396607;19;20379;-62
2023/04/16 09:53:31;;;;;;;20.75;13.50;;;;;;;13.09;62.55;102333.72;7394820;19;20079;-61
2023/04/16 09:56:05;;;;;;;19.42;12.93;;;;;;;13.03;62.15;102339.38;7395890;19;20003;-62
2023/04/16 09:58:31;;;;;;;20.55;13.38;;;;;;;13.16;62.15;102337.69;7394664;19;20115;-62
2023/04/16 10:01:01;;;;;;;18.88;13.20;;;;;;;13.40;61.39;102340.75;7394457;19;20344;-62
2023/04/16 10:03:30;;;;;;;21.60;13.82;;;;;;;13.53;61.26;102335.53;7395342;19;20003;-62
2023/04/16 10:06:05;;;;;;;23.13;13.80;;;;;;;13.49;61.49;102340.19;7393216;19;20495;-62
2023/04/16 10:08:31;;;;;;;19.13;12.90;;;;;;;13.45;61.16;102336.00;7394867;19;20002;-62
2023/04/16 10:10:57;;;;;;;18.08;12.88;;;;;;;13.56;60.79;102341.53;7396470;19;20019;-62
2023/04/16 10:13:26;;;;;;;19.70;13.02;;;;;;;13.58;60.62;102341.44;7393747;19;20685;-63
2023/04/16 10:15:55;;;;;;;19.92;13.40;;;;;;;13.59;60.36;102343.16;7395763;19;20066;-62
2023/04/16 10:18:21;;;;;;;18.58;12.55;;;;;;;13.64;60.14;102344.59;7395432;19;19994;-62
2023/04/16 10:20:49;;;;;;;19.60;13.32;;;;;;;13.68;60.69;102344.41;7396038;19;20011;-61
2023/04/16 10:23:15;;;;;;;18.70;13.13;;;;;;;13.71;60.35;102346.88;7392605;19;20070;-62
2023/04/16 10:25:41;;;;;;;17.75;12.85;;;;;;;13.83;60.03;102346.13;7393849;19;20010;-61
2023/04/16 10:28:08;;;;;;;20.67;13.13;;;;;;;13.92;59.67;102342.03;7394653;19;20325;-61
2023/04/16 10:30:35;;;;;;;21.15;13.70;;;;;;;13.96;59.24;102354.19;7394886;19;20467;-61
2023/04/16 10:33:08;;;;;;;19.98;12.95;;;;;;;14.00;58.62;102350.38;7394125;19;20070;-62
2023/04/16 10:35:38;;;;;;;17.90;12.57;;;;;;;14.09;58.83;102349.81;7392734;19;20037;-61
2023/04/16 10:38:25;;;;;;;19.02;13.00;;;;;;;14.21;58.08;102354.38;7394565;19;20022;-62
2023/04/16 10:41:02;;;;;;;19.30;13.48;;;;;;;14.12;57.53;102353.16;7395350;19;20018;-61
2023/04/16 10:43:29;;;;;;;18.23;12.27;;;;;;;14.10;57.73;102355.03;7393653;19;20027;-61
2023/04/16 10:45:55;;;;;;;17.95;12.55;;;;;;;14.04;58.11;102351.91;7394167;19;20034;-61
2023/04/16 10:48:23;;;;;;;18.90;12.63;;;;;;;14.17;57.62;102352.84;7392603;19;20637;-61
2023/04/16 10:51:35;;;;;;;17.83;12.48;;;;;;;14.17;56.94;102352.84;6783316;19;9954179;-61
2023/04/16 10:54:24;;;;;;;17.90;12.38;;;;;;;14.15;57.63;102354.75;7372995;19;1005211;-62
2023/04/16 10:57:05;;;;;;;17.52;12.65;;;;;;;14.30;57.56;102342.25;7429002;19;20048;-62
2023/04/16 10:59:53;;;;;;;17.65;12.35;;;;;;;14.40;57.56;102343.41;7279733;19;1005291;-62
2023/04/16 11:02:34;;;;;;;18.30;13.25;;;;;;;14.46;57.73;102348.34;7428500;19;20071;-62
2023/04/16 11:05:23;;;;;;;18.00;12.73;;;;;;;14.47;56.97;102344.72;7429614;19;20393;-62
2023/04/16 11:08:20;;;;;;;17.95;12.35;;;;;;;14.25;57.27;102347.03;7429453;19;20354;-63